Terminal Aerodrome Forecast
Issued by NWS

Home | Current Version | Previous Version | Text Only | Print | Product List | Glossary On
Versions: 1 2 3 4 5 6 7 8 9 10 11 12 13 14 15 16 17 18 19 20 21 22 23 24 25 26 27 28 29 30 31 32 33 34 35 36
000
FTUS46 KLOX 111107 AAE
TAFLAX
TAF AMD
KLAX 111107Z 1111/1212 26006KT P6SM SCT006 OVC012
      TEMPO 1111/1115 2SM -RA BR OVC004
     FM111500 25005KT 4SM BR SCT006 OVC012
     FM112000 25008KT 6SM BR SCT012 BKN025
     FM120400 25005KT 4SM BR SCT006 OVC012
     FM121000 VRB03KT 4SM BR OVC015=

USA.gov is the U.S. government's official web portal to all federal, state and local government web resources and services.